Time;durP1;ratioP1;P1;durP2;ratioP2;P2;SDS_P1;SDS_P2;PMS_P1;PMS_P2;Temp;Humidity;BMP_temperature;BMP_pressure;BME280_temperature;BME280_humidity;BME280_pressure;Samples;Min_cycle;Max_cycle;Signal;HPM_P1;HPM_P2
2022/03/26 00:00:09;;;;;;;1.92;1.70;;;2.10;99.90;;;;;;4994898;28;20471;-69
2022/03/26 00:02:35;;;;;;;1.67;1.55;;;2.20;99.90;;;;;;4994662;28;20554;-69
2022/03/26 00:05:02;;;;;;;1.88;1.75;;;2.20;99.90;;;;;;4995188;28;20022;-69
2022/03/26 00:07:28;;;;;;;1.92;1.45;;;2.20;99.90;;;;;;4994668;28;20027;-69
2022/03/26 00:09:54;;;;;;;1.77;1.67;;;2.20;99.90;;;;;;4994788;28;20022;-69
2022/03/26 00:12:20;;;;;;;1.48;1.38;;;2.20;99.90;;;;;;4994533;28;20113;-68
2022/03/26 00:14:46;;;;;;;1.88;1.77;;;2.10;99.90;;;;;;4994797;28;20101;-69
2022/03/26 00:17:12;;;;;;;1.40;1.30;;;2.10;99.90;;;;;;4994676;28;20097;-69
2022/03/26 00:19:38;;;;;;;1.52;1.42;;;1.90;99.90;;;;;;4994440;28;20561;-69
2022/03/26 00:22:04;;;;;;;1.50;1.40;;;1.80;99.90;;;;;;4994672;28;20101;-68
2022/03/26 00:24:29;;;;;;;1.60;1.50;;;1.80;99.90;;;;;;4994679;28;20034;-68
2022/03/26 00:26:55;;;;;;;1.80;1.70;;;1.80;99.90;;;;;;4994366;28;20092;-68
2022/03/26 00:29:21;;;;;;;1.80;1.70;;;1.80;99.90;;;;;;4994649;28;20059;-68
2022/03/26 00:31:46;;;;;;;1.52;1.42;;;1.70;99.90;;;;;;4994359;28;20053;-69
2022/03/26 00:34:13;;;;;;;1.50;1.40;;;1.70;99.90;;;;;;4994540;28;20121;-68
2022/03/26 00:36:40;;;;;;;1.50;1.40;;;1.70;99.90;;;;;;4994219;28;20014;-70
2022/03/26 00:39:06;;;;;;;1.98;1.88;;;1.70;99.90;;;;;;4994258;28;20484;-70
2022/03/26 00:41:32;;;;;;;1.73;1.63;;;1.60;99.90;;;;;;4994088;28;20113;-70
2022/03/26 00:43:58;;;;;;;1.50;1.40;;;1.60;99.90;;;;;;4994454;28;20038;-69
2022/03/26 00:46:24;;;;;;;1.70;1.60;;;1.60;99.90;;;;;;4993972;28;20146;-70
2022/03/26 00:48:50;;;;;;;1.70;1.60;;;1.60;99.90;;;;;;4994015;28;20385;-70
2022/03/26 00:51:16;;;;;;;2.00;1.60;;;1.60;99.90;;;;;;4994355;28;20097;-70
2022/03/26 00:53:45;;;;;;;1.50;1.40;;;1.60;99.90;;;;;;4993833;28;20038;-70
2022/03/26 00:56:12;;;;;;;1.80;1.70;;;1.60;99.90;;;;;;4993730;28;20085;-70
2022/03/26 00:58:38;;;;;;;2.30;1.50;;;1.60;99.90;;;;;;4993447;28;20037;-69
2022/03/26 01:01:04;;;;;;;1.50;1.40;;;1.60;99.90;;;;;;4994245;28;20109;-69
2022/03/26 01:03:30;;;;;;;1.77;1.67;;;1.60;99.90;;;;;;4993742;28;20124;-69
2022/03/26 01:05:56;;;;;;;1.65;1.55;;;1.60;99.90;;;;;;4993697;28;20378;-69
2022/03/26 01:08:22;;;;;;;1.70;1.60;;;1.60;99.90;;;;;;4993792;28;20034;-69
2022/03/26 01:10:48;;;;;;;1.70;1.60;;;1.60;99.90;;;;;;4993607;28;20478;-69
2022/03/26 01:13:14;;;;;;;1.60;1.50;;;1.60;99.90;;;;;;4992660;28;20035;-69
2022/03/26 01:15:40;;;;;;;1.45;1.30;;;1.60;99.90;;;;;;4993417;28;20474;-69
2022/03/26 01:18:06;;;;;;;1.95;1.60;;;1.60;99.90;;;;;;4993437;28;20026;-70
2022/03/26 01:20:33;;;;;;;1.48;1.38;;;1.50;99.90;;;;;;4993293;28;20072;-70
2022/03/26 01:22:59;;;;;;;2.22;1.63;;;1.60;99.90;;;;;;4993263;28;20045;-70
2022/03/26 01:25:25;;;;;;;1.50;1.40;;;1.60;99.90;;;;;;4993267;28;20022;-70
2022/03/26 01:27:52;;;;;;;1.42;1.33;;;1.50;99.90;;;;;;4993263;28;20069;-70
2022/03/26 01:30:18;;;;;;;2.05;1.48;;;1.40;99.90;;;;;;4993581;28;20061;-70
2022/03/26 01:32:44;;;;;;;1.70;1.60;;;1.40;99.90;;;;;;4993277;28;20041;-70
2022/03/26 01:35:11;;;;;;;1.70;1.35;;;1.30;99.90;;;;;;4993468;28;20053;-70
2022/03/26 01:37:38;;;;;;;1.75;1.42;;;1.30;99.90;;;;;;4992792;28;20045;-70
2022/03/26 01:40:05;;;;;;;3.05;1.45;;;1.30;99.90;;;;;;4993188;28;20108;-70
2022/03/26 01:42:32;;;;;;;1.73;1.63;;;1.30;99.90;;;;;;4992768;28;20039;-70
2022/03/26 01:44:58;;;;;;;1.70;1.60;;;1.30;99.90;;;;;;4993303;28;20026;-70
2022/03/26 01:47:24;;;;;;;1.60;1.38;;;1.30;99.90;;;;;;4993191;28;20022;-70
2022/03/26 01:49:51;;;;;;;1.92;1.73;;;1.30;99.90;;;;;;4992987;28;20474;-70
2022/03/26 01:52:17;;;;;;;1.70;1.60;;;1.30;99.90;;;;;;4993222;28;20502;-69
2022/03/26 01:54:43;;;;;;;1.50;1.40;;;1.20;99.90;;;;;;4992840;28;20085;-70
2022/03/26 01:57:13;;;;;;;2.42;1.60;;;1.20;99.90;;;;;;4992983;28;20041;-70
2022/03/26 01:59:40;;;;;;;1.92;1.52;;;1.20;99.90;;;;;;4992823;28;20081;-70
2022/03/26 02:02:06;;;;;;;2.00;1.42;;;1.20;99.90;;;;;;4992802;28;20026;-70
2022/03/26 02:04:34;;;;;;;1.95;1.60;;;1.20;99.90;;;;;;4992768;28;20381;-70
2022/03/26 02:07:03;;;;;;;1.80;1.70;;;1.20;99.90;;;;;;4992839;28;20022;-70
2022/03/26 02:09:35;;;;;;;1.60;1.50;;;1.20;99.90;;;;;;4991766;28;20062;-69
2022/03/26 02:12:22;;;;;;;1.80;1.70;;;1.20;99.90;;;;;;4993002;28;20034;-69
2022/03/26 02:14:48;;;;;;;1.67;1.50;;;1.20;99.90;;;;;;4981919;28;20406;-70
2022/03/26 02:17:13;;;;;;;2.17;1.73;;;1.20;99.90;;;;;;4992605;28;20026;-71
2022/03/26 02:19:39;;;;;;;1.88;1.67;;;1.20;99.90;;;;;;4992686;28;20441;-73
2022/03/26 02:22:05;;;;;;;1.80;1.70;;;1.20;99.90;;;;;;4992546;28;20034;-71
2022/03/26 02:56:00;;;;;;;1.88;1.70;;;0.90;99.90;;;;;;4991734;28;20053;-70
2022/03/26 02:58:26;;;;;;;1.63;0.90;;;0.90;99.90;;;;;;4992096;28;20445;-70
2022/03/26 03:00:52;;;;;;;0.88;0.88;;;0.80;99.90;;;;;;4992469;28;20026;-70
2022/03/26 03:37:01;;;;;;;1.92;1.17;;;0.10;99.90;;;;;;5824241;23;20055;-73
2022/03/26 03:39:27;;;;;;;1.27;1.17;;;0.10;99.90;;;;;;4974129;28;20502;-73
2022/03/26 03:41:53;;;;;;;1.42;1.02;;;0.10;99.90;;;;;;4976150;28;20474;-73
2022/03/26 03:44:18;;;;;;;1.38;1.23;;;0.00;99.90;;;;;;4975774;28;20034;-73
2022/03/26 03:46:44;;;;;;;2.17;1.20;;;0.00;99.90;;;;;;4975659;28;20061;-73
2022/03/26 03:49:11;;;;;;;2.92;1.33;;;0.00;99.90;;;;;;4975727;28;20023;-73
2022/03/26 03:51:36;;;;;;;4.18;1.30;;;0.00;99.90;;;;;;4976072;28;20092;-73
2022/03/26 03:54:02;;;;;;;1.92;1.63;;;0.00;99.90;;;;;;4975677;28;20545;-72
2022/03/26 03:56:28;;;;;;;1.80;1.25;;;0.00;99.90;;;;;;4975960;28;20027;-75
2022/03/26 03:58:54;;;;;;;1.30;1.20;;;-0.10;99.90;;;;;;4975897;28;20034;-73
2022/03/26 04:01:19;;;;;;;3.17;1.20;;;-0.10;99.90;;;;;;4975429;28;20042;-69
2022/03/26 04:03:45;;;;;;;1.95;1.38;;;-0.10;99.90;;;;;;4975216;28;20034;-72
2022/03/26 04:06:11;;;;;;;0.98;0.90;;;-0.10;99.90;;;;;;4975332;28;20034;-72
2022/03/26 04:08:36;;;;;;;1.20;1.02;;;-0.20;99.90;;;;;;4975390;28;20054;-67
2022/03/26 04:11:02;;;;;;;0.90;0.90;;;-0.10;99.90;;;;;;4975216;28;20113;-70
2022/03/26 04:13:28;;;;;;;1.30;1.20;;;0.00;99.90;;;;;;4975248;28;20058;-71
2022/03/26 04:15:54;;;;;;;2.42;1.50;;;-0.10;99.90;;;;;;4975668;28;20022;-71
2022/03/26 04:18:20;;;;;;;1.15;0.90;;;-0.10;99.90;;;;;;4974789;28;20581;-71
2022/03/26 04:20:46;;;;;;;1.20;1.10;;;-0.20;99.90;;;;;;4971611;28;20035;-71
2022/03/26 04:23:12;;;;;;;1.35;1.25;;;-0.20;99.90;;;;;;4970210;28;20042;-70
2022/03/26 04:25:38;;;;;;;0.80;0.80;;;-0.30;99.90;;;;;;4974555;28;20406;-71
2022/03/26 04:28:04;;;;;;;1.27;1.17;;;-0.30;99.90;;;;;;4973981;28;20031;-72
2022/03/26 04:30:30;;;;;;;1.10;1.00;;;-0.30;99.90;;;;;;4974796;28;20106;-83
2022/03/26 04:32:56;;;;;;;0.98;0.90;;;-0.30;99.90;;;;;;4974090;28;20058;-74
2022/03/26 04:35:22;;;;;;;1.38;1.27;;;0.10;99.90;;;;;;4975069;28;20478;-75
2022/03/26 04:37:48;;;;;;;1.05;1.00;;;0.00;99.90;;;;;;4974490;28;20517;-72
2022/03/26 04:40:14;;;;;;;6.53;1.42;;;-0.10;99.90;;;;;;4974760;28;20061;-76
2022/03/26 04:42:43;;;;;;;1.83;1.20;;;-0.20;99.90;;;;;;4974636;28;20046;-74
2022/03/26 04:45:09;;;;;;;1.50;1.40;;;-0.30;99.90;;;;;;4974617;28;20027;-81
2022/03/26 04:47:35;;;;;;;2.00;1.30;;;-0.30;99.90;;;;;;4974788;28;20034;-80
2022/03/26 04:50:01;;;;;;;1.25;1.15;;;-0.30;99.90;;;;;;4974710;28;20022;-77
2022/03/26 04:52:27;;;;;;;2.75;1.10;;;-0.30;99.90;;;;;;4973319;28;20023;-76
2022/03/26 04:54:52;;;;;;;1.13;1.02;;;-0.30;99.90;;;;;;4974306;28;20030;-70
2022/03/26 04:57:18;;;;;;;2.22;1.05;;;-0.30;99.90;;;;;;4974183;28;20038;-69
2022/03/26 04:59:45;;;;;;;1.58;1.35;;;-0.30;99.90;;;;;;4974456;28;20030;-70
2022/03/26 05:02:10;;;;;;;2.58;1.30;;;-0.20;99.90;;;;;;4974526;28;20042;-68
2022/03/26 05:04:36;;;;;;;1.80;0.95;;;0.60;99.90;;;;;;4971702;28;20413;-71
2022/03/26 05:07:45;;;;;;;1.13;0.93;;;0.60;99.90;;;;;;4967864;28;20031;-68
2022/03/26 05:09:48;;;;;;;1.58;1.00;;;0.40;99.90;;;;;;4956569;28;20091;-70
2022/03/26 05:12:13;;;;;;;4.35;1.00;;;0.20;99.90;;;;;;4970058;28;20026;-67
2022/03/26 05:14:39;;;;;;;1.20;1.05;;;0.00;99.90;;;;;;4970982;28;20019;-68
2022/03/26 05:17:05;;;;;;;1.08;0.90;;;-0.10;99.90;;;;;;4970933;28;20019;-70
2022/03/26 05:19:30;;;;;;;3.35;1.20;;;-0.10;99.90;;;;;;4972964;28;20102;-70
2022/03/26 05:21:56;;;;;;;1.45;1.00;;;-0.10;99.90;;;;;;4973521;28;20023;-70
2022/03/26 05:24:22;;;;;;;2.58;1.17;;;-0.20;99.90;;;;;;4970624;28;20058;-69
2022/03/26 05:26:48;;;;;;;4.38;0.93;;;-0.20;99.90;;;;;;4973391;28;20023;-70
2022/03/26 05:29:13;;;;;;;2.17;1.10;;;-0.20;99.90;;;;;;4973066;28;20027;-70
2022/03/26 05:31:39;;;;;;;2.38;1.25;;;-0.20;99.90;;;;;;4973330;28;20102;-70
2022/03/26 05:34:05;;;;;;;1.33;1.20;;;-0.30;99.90;;;;;;4973452;28;20030;-70
2022/03/26 05:36:30;;;;;;;1.67;1.20;;;-0.30;99.90;;;;;;4973502;28;20042;-70
2022/03/26 05:38:56;;;;;;;1.58;0.90;;;-0.40;99.90;;;;;;4973847;28;20338;-71
2022/03/26 05:41:23;;;;;;;2.50;1.00;;;-0.30;99.90;;;;;;4972359;28;20023;-72
2022/03/26 05:43:49;;;;;;;3.08;1.40;;;-0.30;99.90;;;;;;4973455;28;20038;-71
2022/03/26 05:46:15;;;;;;;1.45;1.00;;;-0.30;99.90;;;;;;4973837;28;20037;-71
2022/03/26 05:48:41;;;;;;;6.03;2.25;;;-0.30;99.90;;;;;;4973791;28;20038;-71
2022/03/26 05:51:07;;;;;;;1.73;1.13;;;-0.30;99.90;;;;;;4973588;28;20027;-71
2022/03/26 05:53:33;;;;;;;2.25;1.13;;;-0.40;99.90;;;;;;4973779;28;20034;-71
2022/03/26 05:55:59;;;;;;;3.65;1.10;;;-0.40;99.90;;;;;;4973828;28;20381;-73
2022/03/26 05:58:25;;;;;;;5.43;1.10;;;-0.50;99.90;;;;;;4973477;28;20033;-69
2022/03/26 06:00:51;;;;;;;3.55;1.10;;;-0.50;99.90;;;;;;4973491;28;20511;-69
2022/03/26 06:03:18;;;;;;;2.45;1.02;;;-0.50;99.90;;;;;;4973233;28;20093;-69
2022/03/26 06:05:44;;;;;;;1.02;0.95;;;-0.50;99.90;;;;;;4973626;28;20454;-69
2022/03/26 06:08:10;;;;;;;2.10;0.90;;;-0.50;99.90;;;;;;4973096;28;20093;-69
2022/03/26 06:10:36;;;;;;;1.15;0.93;;;-0.50;99.90;;;;;;4973214;28;20027;-69
2022/03/26 06:13:02;;;;;;;2.20;0.98;;;-0.50;99.90;;;;;;4973271;28;20122;-69
2022/03/26 06:15:27;;;;;;;2.22;1.10;;;-0.60;99.90;;;;;;4973271;28;20071;-68
2022/03/26 06:17:53;;;;;;;1.75;1.02;;;-0.50;99.90;;;;;;4960850;28;20059;-76
2022/03/26 06:20:19;;;;;;;0.80;0.80;;;-0.60;99.90;;;;;;4972469;28;20033;-79
2022/03/26 06:22:44;;;;;;;3.72;1.20;;;-0.60;99.90;;;;;;4971079;28;20096;-79
2022/03/26 06:25:10;;;;;;;1.67;0.90;;;-0.60;99.90;;;;;;4965394;28;20058;-82
2022/03/26 06:27:36;;;;;;;0.57;0.57;;;-0.60;99.90;;;;;;4972416;28;20057;-73
2022/03/26 06:30:03;;;;;;;0.95;0.75;;;-0.60;99.90;;;;;;4972288;28;20023;-68
2022/03/26 06:32:28;;;;;;;1.40;0.80;;;-0.70;99.90;;;;;;4972333;28;20011;-68
2022/03/26 06:34:54;;;;;;;3.55;0.68;;;-0.60;99.90;;;;;;4972532;28;20034;-72
2022/03/26 06:37:21;;;;;;;1.63;0.98;;;-0.60;99.90;;;;;;4972200;28;20078;-73
2022/03/26 06:39:46;;;;;;;1.80;0.80;;;-0.60;99.90;;;;;;4972264;28;20508;-73
2022/03/26 06:42:12;;;;;;;2.35;0.90;;;-0.70;99.90;;;;;;4972499;28;20030;-73
2022/03/26 06:44:38;;;;;;;1.40;0.80;;;-0.70;99.90;;;;;;4973024;28;20094;-75
2022/03/26 06:47:05;;;;;;;0.70;0.70;;;-0.60;99.90;;;;;;4972895;28;20356;-72
2022/03/26 06:49:32;;;;;;;0.77;0.77;;;-0.60;99.90;;;;;;4972957;28;20031;-72
2022/03/26 06:51:59;;;;;;;1.00;0.77;;;-0.60;99.90;;;;;;4972860;28;20089;-72
2022/03/26 06:54:25;;;;;;;0.80;0.80;;;-0.60;99.90;;;;;;4972505;28;20031;-75
2022/03/26 06:56:51;;;;;;;1.02;0.80;;;-0.60;99.90;;;;;;4976188;28;20027;-73
2022/03/26 06:59:17;;;;;;;0.80;0.80;;;-0.50;99.90;;;;;;4976456;28;20108;-76
2022/03/26 07:01:44;;;;;;;1.30;0.70;;;-0.50;99.90;;;;;;4976508;28;20482;-73
2022/03/26 07:04:10;;;;;;;0.75;0.75;;;-0.40;99.90;;;;;;4976702;28;20035;-72
2022/03/26 07:06:35;;;;;;;1.02;0.90;;;-0.30;99.90;;;;;;4976452;28;20416;-71
2022/03/26 07:09:01;;;;;;;0.80;0.80;;;-0.30;97.80;;;;;;4976434;28;20109;-70
2022/03/26 07:11:27;;;;;;;1.80;0.90;;;-0.20;99.90;;;;;;4976640;28;20474;-69
2022/03/26 07:13:53;;;;;;;3.83;0.75;;;0.00;99.20;;;;;;4976674;28;20483;-68
2022/03/26 07:16:18;;;;;;;2.67;0.80;;;0.20;96.60;;;;;;4976217;28;20035;-70
2022/03/26 07:18:44;;;;;;;2.15;0.68;;;0.20;95.50;;;;;;4976322;28;20031;-69
2022/03/26 07:21:10;;;;;;;0.80;0.80;;;0.40;96.50;;;;;;4976381;28;20505;-69
2022/03/26 07:23:36;;;;;;;0.70;0.70;;;0.50;95.50;;;;;;4976113;28;20031;-70
2022/03/26 07:26:02;;;;;;;1.85;1.02;;;0.40;92.20;;;;;;4976312;28;20106;-69
2022/03/26 07:28:28;;;;;;;0.68;0.68;;;0.40;92.40;;;;;;4976108;28;20030;-69
2022/03/26 07:30:54;;;;;;;0.50;0.50;;;0.40;92.00;;;;;;4976126;28;20158;-70
2022/03/26 07:33:19;;;;;;;1.25;0.70;;;0.50;91.40;;;;;;4975969;28;20437;-70
2022/03/26 07:35:45;;;;;;;0.85;0.85;;;0.40;89.70;;;;;;4976457;28;20027;-70
2022/03/26 07:38:12;;;;;;;0.60;0.60;;;0.40;90.70;;;;;;4975795;28;20047;-72
2022/03/26 07:40:37;;;;;;;2.15;0.60;;;0.30;90.50;;;;;;4976001;28;20027;-71
2022/03/26 07:43:03;;;;;;;2.05;0.60;;;0.30;88.40;;;;;;4965044;28;20060;-71
2022/03/26 07:45:29;;;;;;;0.70;0.70;;;0.30;90.60;;;;;;4974949;28;20121;-71
2022/03/26 07:47:56;;;;;;;0.85;0.85;;;0.40;89.80;;;;;;4961612;28;20427;-71
2022/03/26 07:50:22;;;;;;;0.60;0.60;;;0.30;88.60;;;;;;4971934;28;20035;-69
2022/03/26 07:52:48;;;;;;;0.85;0.77;;;0.30;90.10;;;;;;4960838;28;20051;-74
2022/03/26 07:55:13;;;;;;;1.52;0.90;;;0.40;90.50;;;;;;4975030;28;20659;-73
2022/03/26 07:57:39;;;;;;;3.90;0.80;;;0.40;89.90;;;;;;4975346;28;20027;-72
2022/03/26 08:00:06;;;;;;;1.00;0.65;;;0.30;90.20;;;;;;4960288;28;20043;-72
2022/03/26 08:02:32;;;;;;;0.63;0.63;;;0.70;99.90;;;;;;4971760;28;20310;-72
2022/03/26 08:04:59;;;;;;;1.30;0.70;;;0.70;91.90;;;;;;4944446;28;20023;-73
2022/03/26 08:07:25;;;;;;;0.88;0.80;;;0.60;90.30;;;;;;4962316;28;20035;-72
2022/03/26 08:09:51;;;;;;;7.93;0.75;;;0.60;91.30;;;;;;4968905;28;20134;-71
2022/03/26 08:12:17;;;;;;;0.60;0.60;;;0.50;89.80;;;;;;4958683;28;20078;-71
2022/03/26 08:14:42;;;;;;;1.10;0.68;;;0.50;88.20;;;;;;4970538;28;20023;-72
2022/03/26 08:17:09;;;;;;;2.15;0.80;;;0.50;88.00;;;;;;4962923;28;20042;-69
2022/03/26 08:19:35;;;;;;;1.90;0.80;;;0.50;87.90;;;;;;4963287;28;20035;-69
2022/03/26 08:22:04;;;;;;;1.23;0.70;;;0.50;88.00;;;;;;4970064;28;20026;-68
2022/03/26 08:24:30;;;;;;;0.68;0.63;;;0.50;87.50;;;;;;4956064;28;20035;-68
2022/03/26 08:26:56;;;;;;;4.40;0.80;;;0.50;87.00;;;;;;4955807;28;20066;-68
2022/03/26 08:29:22;;;;;;;2.15;0.80;;;0.60;86.80;;;;;;4955637;28;20097;-68
2022/03/26 08:31:47;;;;;;;1.55;0.70;;;0.50;83.60;;;;;;4955818;28;20031;-71
2022/03/26 08:34:13;;;;;;;0.82;0.80;;;1.00;97.80;;;;;;4955064;29;20031;-67
2022/03/26 08:36:39;;;;;;;0.80;0.80;;;1.60;99.90;;;;;;4955418;29;20038;-70
2022/03/26 08:39:05;;;;;;;1.15;0.70;;;1.60;90.10;;;;;;4955748;28;20715;-66
2022/03/26 08:41:30;;;;;;;1.10;0.60;;;1.20;78.50;;;;;;4958975;28;20019;-67
2022/03/26 08:43:56;;;;;;;2.05;0.80;;;0.90;81.30;;;;;;4970178;28;20027;-66
2022/03/26 08:46:23;;;;;;;3.00;0.73;;;1.00;99.90;;;;;;4954968;28;20030;-65
2022/03/26 08:48:50;;;;;;;3.13;0.50;;;3.40;99.90;;;;;;4955154;28;20126;-67
2022/03/26 08:51:17;;;;;;;0.90;0.63;;;3.20;98.80;;;;;;4958314;28;20015;-67
2022/03/26 08:53:43;;;;;;;1.80;0.80;;;2.60;79.40;;;;;;4974270;28;20402;-66
2022/03/26 08:56:09;;;;;;;0.68;0.68;;;3.70;99.90;;;;;;4974519;28;20085;-66
2022/03/26 08:58:34;;;;;;;0.93;0.80;;;3.50;83.50;;;;;;4974294;28;20030;-66
2022/03/26 09:01:00;;;;;;;1.00;0.73;;;2.70;78.80;;;;;;4974497;28;20094;-66
2022/03/26 09:03:26;;;;;;;0.85;0.50;;;2.20;77.40;;;;;;4974117;28;20434;-66
2022/03/26 09:05:53;;;;;;;0.98;0.70;;;1.80;73.50;;;;;;4974259;28;20034;-66
2022/03/26 09:08:19;;;;;;;2.83;0.80;;;1.40;77.00;;;;;;4974012;28;20035;-66
2022/03/26 09:10:45;;;;;;;0.40;0.40;;;1.10;75.00;;;;;;4974588;28;20093;-66
2022/03/26 09:13:12;;;;;;;0.70;0.63;;;0.90;75.80;;;;;;4974482;28;20062;-66
2022/03/26 09:15:38;;;;;;;0.70;0.70;;;0.80;75.70;;;;;;4974123;28;20515;-66
2022/03/26 09:18:05;;;;;;;0.60;0.60;;;0.80;76.90;;;;;;4973738;28;20035;-66
2022/03/26 09:20:31;;;;;;;2.00;0.80;;;0.80;77.60;;;;;;4974328;28;20039;-66
2022/03/26 09:22:57;;;;;;;3.33;0.70;;;0.70;76.70;;;;;;4974332;28;20038;-66
2022/03/26 09:25:23;;;;;;;1.15;0.70;;;0.60;75.60;;;;;;4973951;28;20118;-66
2022/03/26 09:27:50;;;;;;;0.88;0.80;;;0.60;75.90;;;;;;4974051;28;20105;-66
2022/03/26 09:30:16;;;;;;;0.95;0.85;;;0.60;77.10;;;;;;4974211;28;20026;-66
2022/03/26 09:32:46;;;;;;;0.70;0.68;;;0.70;76.50;;;;;;4974118;28;20027;-66
2022/03/26 09:35:12;;;;;;;0.73;0.63;;;0.70;76.90;;;;;;4973881;28;20113;-66
2022/03/26 09:37:40;;;;;;;1.05;0.82;;;0.80;77.00;;;;;;4973534;28;20057;-66
2022/03/26 09:40:07;;;;;;;0.63;0.63;;;0.90;90.60;;;;;;4973750;28;20502;-66
2022/03/26 09:42:34;;;;;;;2.47;0.70;;;2.20;87.70;;;;;;4973131;28;20049;-67
2022/03/26 09:44:59;;;;;;;3.00;0.90;;;1.80;77.00;;;;;;4973601;28;20482;-67
2022/03/26 09:47:25;;;;;;;0.93;0.80;;;1.40;75.10;;;;;;4973496;28;20039;-67
2022/03/26 09:49:51;;;;;;;1.60;0.80;;;1.20;75.30;;;;;;4973501;28;20077;-67
2022/03/26 09:52:17;;;;;;;0.70;0.70;;;1.20;77.00;;;;;;4973148;28;20490;-67
2022/03/26 09:54:43;;;;;;;2.15;0.80;;;1.90;95.00;;;;;;4973231;28;20471;-67
2022/03/26 09:57:09;;;;;;;0.50;0.50;;;1.80;78.50;;;;;;4973066;28;20030;-66
2022/03/26 09:59:36;;;;;;;1.25;0.60;;;1.50;74.10;;;;;;4972610;28;20023;-64
2022/03/26 10:02:02;;;;;;;0.93;0.60;;;1.30;75.00;;;;;;4972711;28;20066;-65
2022/03/26 10:04:39;;;;;;;0.52;0.50;;;1.20;74.50;;;;;;4970135;28;20463;-65
2022/03/26 10:07:05;;;;;;;3.25;0.80;;;1.10;74.00;;;;;;4972627;28;20034;-64
2022/03/26 10:09:36;;;;;;;4.35;0.70;;;1.00;75.00;;;;;;4972903;28;20023;-64
2022/03/26 10:12:16;;;;;;;1.08;0.68;;;1.00;75.20;;;;;;4973403;28;20027;-65
2022/03/26 10:14:59;;;;;;;1.17;0.73;;;1.10;73.90;;;;;;4973148;28;20022;-64
2022/03/26 10:17:33;;;;;;;2.00;0.68;;;1.00;72.50;;;;;;4973134;28;20027;-65
2022/03/26 10:20:08;;;;;;;0.55;0.55;;;1.00;74.10;;;;;;4973064;28;20406;-65
2022/03/26 10:22:45;;;;;;;1.52;0.65;;;1.00;72.10;;;;;;4973000;28;20494;-65
2022/03/26 10:25:22;;;;;;;1.38;1.08;;;1.00;72.20;;;;;;4973219;28;20034;-64
2022/03/26 10:27:54;;;;;;;0.77;0.73;;;1.00;72.70;;;;;;4973118;28;20062;-64
2022/03/26 10:32:38;;;;;;;0.88;0.80;;;1.00;72.80;;;;;;4972143;28;20019;-66
2022/03/26 10:33:22;;;;;;;1.27;0.80;;;1.10;73.30;;;;;;4973126;28;20045;-65
2022/03/26 10:36:02;;;;;;;1.27;0.57;;;1.20;73.30;;;;;;4973282;28;20082;-65
2022/03/26 10:38:39;;;;;;;0.90;0.70;;;1.20;72.10;;;;;;4972456;28;20065;-68
2022/03/26 10:41:08;;;;;;;1.70;0.90;;;1.10;70.40;;;;;;4973164;28;20027;-67
2022/03/26 10:43:34;;;;;;;1.10;0.88;;;1.10;71.60;;;;;;4972735;28;20591;-67
2022/03/26 10:46:01;;;;;;;1.05;0.90;;;1.10;71.90;;;;;;4972993;28;20517;-67
2022/03/26 10:48:32;;;;;;;1.15;0.80;;;1.20;71.80;;;;;;4972930;28;20113;-67
2022/03/26 10:51:08;;;;;;;;;;;1.20;72.00;;;;;;4973531;28;20482;-67
2022/03/26 10:53:37;;;;;;;3.15;0.80;;;1.20;70.60;;;;;;4972867;28;20513;-67
2022/03/26 10:56:05;;;;;;;0.70;0.70;;;1.20;70.30;;;;;;4973299;28;20023;-67
2022/03/26 10:58:32;;;;;;;3.83;0.70;;;1.20;69.60;;;;;;4973156;28;20027;-67
2022/03/26 11:00:58;;;;;;;0.93;0.60;;;1.20;69.80;;;;;;4972942;28;20022;-67
2022/03/26 11:03:25;;;;;;;4.15;0.80;;;1.20;68.20;;;;;;4972645;28;20039;-67
2022/03/26 11:05:55;;;;;;;2.55;0.90;;;1.20;68.20;;;;;;4972791;28;20110;-67
2022/03/26 11:08:23;;;;;;;3.72;0.77;;;1.20;68.30;;;;;;4972782;28;20031;-67
2022/03/26 11:10:59;;;;;;;0.82;0.80;;;1.20;68.40;;;;;;4972759;28;20029;-67
2022/03/26 11:13:28;;;;;;;4.97;0.80;;;1.30;67.50;;;;;;4972696;28;20022;-67
2022/03/26 11:16:02;;;;;;;0.70;0.70;;;1.30;68.40;;;;;;4972731;28;20110;-67
2022/03/26 11:18:59;;;;;;;0.80;0.80;;;1.40;66.60;;;;;;4972268;28;20522;-67
2022/03/26 11:21:53;;;;;;;0.57;0.57;;;1.40;65.00;;;;;;4951568;28;20042;-69
2022/03/26 11:24:42;;;;;;;4.20;0.93;;;1.40;65.00;;;;;;4972910;28;20042;-68
2022/03/26 11:27:18;;;;;;;2.22;0.73;;;1.40;65.20;;;;;;4971113;28;20162;-68
2022/03/26 11:29:59;;;;;;;1.63;0.93;;;1.50;66.80;;;;;;4972554;28;20644;-68
2022/03/26 11:32:31;;;;;;;;;;;1.60;66.30;;;;;;4972915;28;20066;-69
2022/03/26 11:35:03;;;;;;;1.30;0.80;;;1.60;64.50;;;;;;4972565;28;19910;-68
2022/03/26 11:37:29;;;;;;;9.68;1.02;;;1.70;65.70;;;;;;4972125;28;20502;-68
2022/03/26 11:39:58;;;;;;;28.23;1.45;;;1.70;65.20;;;;;;4972487;28;20545;-68
2022/03/26 11:42:30;;;;;;;0.70;0.70;;;1.70;62.50;;;;;;4974983;28;20086;-68
2022/03/26 11:50:45;;;;;;;0.93;0.60;;;1.80;62.80;;;;;;4975169;28;20033;-68
2022/03/26 11:53:31;;;;;;;5.15;0.90;;;1.80;62.00;;;;;;4975231;28;20093;-68
2022/03/26 11:55:57;;;;;;;11.93;1.13;;;1.70;62.80;;;;;;4975395;28;20486;-69
2022/03/26 11:58:26;;;;;;;0.73;0.60;;;1.80;62.50;;;;;;4975750;28;20039;-69
2022/03/26 12:01:04;;;;;;;0.70;0.70;;;1.80;61.00;;;;;;4972354;28;20019;-69
2022/03/26 12:03:49;;;;;;;0.60;0.60;;;1.70;61.10;;;;;;4970632;28;20046;-68
2022/03/26 12:06:37;;;;;;;0.68;0.68;;;1.60;60.80;;;;;;4975281;28;20450;-68
2022/03/26 12:09:03;;;;;;;0.80;0.80;;;1.60;61.10;;;;;;4975554;28;20023;-68
2022/03/26 12:11:33;;;;;;;1.63;0.70;;;1.60;62.30;;;;;;4975318;28;20023;-68
2022/03/26 12:14:07;;;;;;;4.85;0.75;;;1.70;62.10;;;;;;4975501;28;20027;-68
2022/03/26 12:16:51;;;;;;;0.60;0.60;;;1.70;62.10;;;;;;4975363;28;20422;-68
2022/03/26 12:19:35;;;;;;;0.85;0.50;;;1.70;61.60;;;;;;4975336;28;20042;-69
2022/03/26 12:22:25;;;;;;;1.02;0.70;;;1.70;62.40;;;;;;4975260;28;20030;-68
2022/03/26 12:24:53;;;;;;;27.50;12.35;;;1.70;63.20;;;;;;4975274;28;20077;-66
2022/03/26 12:27:20;;;;;;;40.30;16.05;;;1.80;65.80;;;;;;4975212;28;20031;-67
2022/03/26 12:29:46;;;;;;;2.58;1.70;;;3.40;99.90;;;;;;4975297;28;20035;-68
2022/03/26 12:32:12;;;;;;;1.05;0.82;;;3.70;71.30;;;;;;4975015;28;20066;-67
2022/03/26 12:34:59;;;;;;;0.82;0.73;;;3.20;64.90;;;;;;4974750;28;20030;-67
2022/03/26 12:37:25;;;;;;;0.82;0.63;;;2.70;63.10;;;;;;4974829;28;20090;-67
2022/03/26 12:39:52;;;;;;;0.65;0.57;;;2.50;63.30;;;;;;4974904;28;20434;-67
2022/03/26 12:42:19;;;;;;;2.47;0.50;;;2.20;61.40;;;;;;4975064;28;20118;-67
2022/03/26 12:44:46;;;;;;;2.75;0.68;;;2.10;61.70;;;;;;4974658;28;20121;-67
2022/03/26 12:47:20;;;;;;;1.60;0.80;;;1.90;61.90;;;;;;4974761;28;20038;-67
2022/03/26 12:49:50;;;;;;;0.93;0.70;;;1.90;62.40;;;;;;4974715;28;20038;-67
2022/03/26 12:52:20;;;;;;;0.52;0.52;;;1.90;63.10;;;;;;4974142;28;20031;-67
2022/03/26 12:54:53;;;;;;;0.50;0.50;;;1.90;62.00;;;;;;4974408;28;20187;-67
2022/03/26 12:57:19;;;;;;;4.95;0.52;;;1.90;61.70;;;;;;4974545;28;20034;-69
2022/03/26 12:59:53;;;;;;;0.52;0.52;;;2.00;61.50;;;;;;4974352;28;20541;-67
2022/03/26 13:02:18;;;;;;;0.65;0.65;;;2.00;62.80;;;;;;4974420;28;20031;-67
2022/03/26 13:04:53;;;;;;;4.30;0.68;;;2.00;62.30;;;;;;4974265;28;20061;-69
2022/03/26 13:07:19;;;;;;;9.30;0.95;;;2.00;61.00;;;;;;4974193;28;20026;-67
2022/03/26 13:09:45;;;;;;;1.92;0.65;;;2.00;61.50;;;;;;4963667;28;20497;-69
2022/03/26 13:12:27;;;;;;;1.75;0.70;;;2.10;62.10;;;;;;4967787;28;20027;-68
2022/03/26 13:14:53;;;;;;;1.83;0.68;;;2.20;61.60;;;;;;4970986;28;20074;-68
2022/03/26 13:17:21;;;;;;;0.57;0.57;;;2.20;60.60;;;;;;4968156;28;20027;-69
2022/03/26 13:19:47;;;;;;;1.48;0.60;;;2.20;60.20;;;;;;4973931;28;20364;-68
2022/03/26 13:22:17;;;;;;;2.55;0.60;;;2.20;60.00;;;;;;4974039;28;20027;-68
2022/03/26 13:24:53;;;;;;;31.33;1.63;;;2.20;59.50;;;;;;4972360;28;20462;-68
2022/03/26 13:27:20;;;;;;;1.00;0.60;;;2.20;59.70;;;;;;4974186;28;20030;-68
2022/03/26 13:29:47;;;;;;;1.15;0.60;;;2.20;59.00;;;;;;4973703;28;20631;-68
2022/03/26 13:32:12;;;;;;;0.40;0.40;;;2.30;59.80;;;;;;4973811;28;20038;-66
2022/03/26 13:34:41;;;;;;;0.40;0.40;;;2.30;59.70;;;;;;4966253;28;20031;-67
2022/03/26 13:37:14;;;;;;;0.47;0.47;;;2.30;59.00;;;;;;4954205;28;20073;-67
2022/03/26 13:39:44;;;;;;;0.70;0.60;;;2.30;58.90;;;;;;4952673;28;20023;-67
2022/03/26 13:42:15;;;;;;;12.60;1.10;;;2.40;59.70;;;;;;4952832;28;20035;-67
2022/03/26 13:44:43;;;;;;;0.60;0.60;;;2.40;58.40;;;;;;4969460;28;20022;-67
2022/03/26 13:47:20;;;;;;;0.85;0.55;;;2.40;58.80;;;;;;4969783;28;20022;-67
2022/03/26 13:50:01;;;;;;;5.00;0.60;;;2.30;58.20;;;;;;4970589;28;20026;-67
2022/03/26 13:52:29;;;;;;;1.00;0.68;;;2.20;58.50;;;;;;4971607;28;20109;-66
2022/03/26 13:54:55;;;;;;;2.63;0.60;;;2.20;59.50;;;;;;4973021;28;20604;-67
2022/03/26 13:57:35;;;;;;;2.35;0.70;;;2.20;60.10;;;;;;4971694;28;20026;-67
2022/03/26 14:00:10;;;;;;;1.92;0.60;;;2.20;60.80;;;;;;4973169;28;20069;-67
2022/03/26 14:02:37;;;;;;;0.60;0.50;;;2.20;60.60;;;;;;4972658;28;20442;-68
2022/03/26 14:05:04;;;;;;;1.70;0.60;;;2.20;60.70;;;;;;4972692;28;20053;-68
2022/03/26 14:07:30;;;;;;;0.70;0.60;;;2.20;61.90;;;;;;4972686;28;20054;-68
2022/03/26 14:09:56;;;;;;;13.43;1.17;;;2.30;61.90;;;;;;4971447;28;20034;-67